Hovedside
METAR-TAF:

METAR-TAF

Lufthavner :

Khartoum, Sudan

breddegrad: 15-36N, lengdegrad: 032-33E, høyde over havet: 382 m

Gjeldene værobservasjon

Denne rapporten ble laget for 33 minutter siden, klokken 21:00 UTC
Vind 11 kt fra Nord
Temperatur 23°C
Luftfuktighet 20%
Trykk 1014 hPa
Sikt 10 km eller mer
ingen skyer under 1500 m og ingen bygeskyer

METAR: HSSS 182100Z 35011KT CAVOK 23/M01 Q1014 NOSIG

Tid: 00:33 (21:33 UTC)

Varsel

Denne rapporten ble laget for 4 timer og 33 minutter siden, klokken 17:00 UTC
Varsel gyldig fra 18. klokken 18 UTC til 19. klokken 24 UTC
Vind 10 kt fra Nord med vindkast opp mot 25 kt
Sikt 10 km eller mer
ingen skyer under 1500 m og ingen bygeskyer
Sannsynlighet 30% :
Midlertidig
fra 19. klokken 03 UTC til 19. klokken 09 UTC
Sikt: 4000 m
sanddrev

TAF: HSSS 181700Z 1818/1924 36010G25KT CAVOK PROB30 TEMPO 1903/1909 4000 BLSA

Værobservasjoner og værvarsel for over 4000 flyplasser (METAR- og TAF-rapporter).

Tilgjengelige stasjoner er representert av de røde og gule prikkene på kartet.

Hold musepekeren over prikken for å se navnet på stasjonen.

Klikk så for å se værobservasjoner og -varsler.

For å forandre kartet kan du klikke på den grønne knappen med svart kryss for å zoome inn, på den grønne knappen med strek for å zoome ut, eller på de grønne pilene for å se tilstøtende kart.


METAR-TAF: